Erwin, North Carolina
Current Conditions -  °F | °C
As of 6:35 PM on Friday 19 Dec 2014 (Local Time) from KHRJ Reporting Station
Clear Clear  
Wind Chill: 44°   Ceiling: Unl
Heat Index: 46°   Visibility: 10mi
Dew Point: 30°   Wind: 5mph
Humidity: 53%   Direction: 30°NNE
Pressure: 30.17"   Gusts: NA
Location:  35.33°N, 78.68°W
Report Text: KHRJ 192335Z AUTO 03004KT 10SM CLR 08/M01 A3017 RMK AO2 T00791013
Loading
Personal Weather Stations






























Interactive Weather Map New forecast layout! Learn more

10-Day Weather Forecast

Advertisements
Track Severe Weather on mobile